sensor_id;sensor_type;location;lat;lon;timestamp;P1;durP1;ratioP1;P2;durP2;ratioP2
1719;SDS011;857;52.872;9.692;2022-12-18T00:00:47;23.15;;;11.02;;
1719;SDS011;857;52.872;9.692;2022-12-18T00:03:15;21.60;;;11.68;;
1719;SDS011;857;52.872;9.692;2022-12-18T00:05:46;18.33;;;9.88;;
1719;SDS011;857;52.872;9.692;2022-12-18T00:08:14;22.67;;;12.35;;
1719;SDS011;857;52.872;9.692;2022-12-18T00:10:42;17.73;;;11.40;;
1719;SDS011;857;52.872;9.692;2022-12-18T00:13:10;23.67;;;11.52;;
1719;SDS011;857;52.872;9.692;2022-12-18T00:15:38;23.23;;;11.55;;
1719;SDS011;857;52.872;9.692;2022-12-18T00:18:08;15.63;;;10.70;;
1719;SDS011;857;52.872;9.692;2022-12-18T00:20:36;23.90;;;12.15;;
1719;SDS011;857;52.872;9.692;2022-12-18T00:23:04;20.25;;;10.90;;
1719;SDS011;857;52.872;9.692;2022-12-18T00:25:32;23.20;;;10.25;;
1719;SDS011;857;52.872;9.692;2022-12-18T00:28:01;20.27;;;11.90;;
1719;SDS011;857;52.872;9.692;2022-12-18T00:30:28;22.08;;;10.98;;
1719;SDS011;857;52.872;9.692;2022-12-18T00:32:57;19.88;;;11.35;;
1719;SDS011;857;52.872;9.692;2022-12-18T00:35:26;22.88;;;11.25;;
1719;SDS011;857;52.872;9.692;2022-12-18T00:37:54;17.33;;;10.30;;
1719;SDS011;857;52.872;9.692;2022-12-18T00:40:22;20.70;;;10.13;;
1719;SDS011;857;52.872;9.692;2022-12-18T00:42:50;18.45;;;10.15;;
1719;SDS011;857;52.872;9.692;2022-12-18T00:45:23;20.98;;;11.35;;
1719;SDS011;857;52.872;9.692;2022-12-18T00:47:51;18.55;;;11.30;;
1719;SDS011;857;52.872;9.692;2022-12-18T00:50:18;20.08;;;10.75;;
1719;SDS011;857;52.872;9.692;2022-12-18T00:52:47;21.08;;;11.68;;
1719;SDS011;857;52.872;9.692;2022-12-18T00:55:15;18.38;;;11.25;;
1719;SDS011;857;52.872;9.692;2022-12-18T00:57:43;22.35;;;10.98;;
1719;SDS011;857;52.872;9.692;2022-12-18T01:00:12;16.98;;;10.68;;
1719;SDS011;857;52.872;9.692;2022-12-18T01:02:41;19.98;;;10.45;;
1719;SDS011;857;52.872;9.692;2022-12-18T01:05:09;17.95;;;10.10;;
1719;SDS011;857;52.872;9.692;2022-12-18T01:07:38;18.20;;;10.88;;
1719;SDS011;857;52.872;9.692;2022-12-18T01:10:08;17.70;;;10.18;;
1719;SDS011;857;52.872;9.692;2022-12-18T01:12:36;20.63;;;10.82;;
1719;SDS011;857;52.872;9.692;2022-12-18T01:15:04;18.33;;;10.23;;
1719;SDS011;857;52.872;9.692;2022-12-18T01:17:32;14.90;;;9.55;;
1719;SDS011;857;52.872;9.692;2022-12-18T01:20:00;17.55;;;9.57;;
1719;SDS011;857;52.872;9.692;2022-12-18T01:22:28;16.70;;;9.70;;
1719;SDS011;857;52.872;9.692;2022-12-18T01:24:55;15.57;;;8.52;;
1719;SDS011;857;52.872;9.692;2022-12-18T01:27:24;18.20;;;9.63;;
1719;SDS011;857;52.872;9.692;2022-12-18T01:29:52;16.33;;;9.00;;
1719;SDS011;857;52.872;9.692;2022-12-18T01:32:20;15.43;;;8.40;;
1719;SDS011;857;52.872;9.692;2022-12-18T01:34:49;15.20;;;8.75;;
1719;SDS011;857;52.872;9.692;2022-12-18T01:37:17;13.20;;;8.52;;
1719;SDS011;857;52.872;9.692;2022-12-18T01:39:44;13.60;;;7.88;;
1719;SDS011;857;52.872;9.692;2022-12-18T01:42:13;16.05;;;9.65;;
1719;SDS011;857;52.872;9.692;2022-12-18T01:44:56;16.63;;;9.00;;
1719;SDS011;857;52.872;9.692;2022-12-18T01:47:25;18.08;;;9.55;;
1719;SDS011;857;52.872;9.692;2022-12-18T01:49:53;15.18;;;8.90;;
1719;SDS011;857;52.872;9.692;2022-12-18T01:52:21;17.70;;;9.30;;
1719;SDS011;857;52.872;9.692;2022-12-18T01:54:50;16.52;;;8.55;;
1719;SDS011;857;52.872;9.692;2022-12-18T01:57:19;17.27;;;8.43;;
1719;SDS011;857;52.872;9.692;2022-12-18T01:59:47;15.05;;;8.93;;
1719;SDS011;857;52.872;9.692;2022-12-18T02:02:18;15.93;;;9.50;;
1719;SDS011;857;52.872;9.692;2022-12-18T02:04:46;16.48;;;10.00;;
1719;SDS011;857;52.872;9.692;2022-12-18T02:07:14;15.95;;;8.38;;
1719;SDS011;857;52.872;9.692;2022-12-18T02:09:45;16.40;;;9.30;;
1719;SDS011;857;52.872;9.692;2022-12-18T02:12:16;16.00;;;9.07;;
1719;SDS011;857;52.872;9.692;2022-12-18T02:14:48;15.63;;;9.15;;
1719;SDS011;857;52.872;9.692;2022-12-18T02:17:20;18.00;;;8.27;;
1719;SDS011;857;52.872;9.692;2022-12-18T02:19:54;16.70;;;8.52;;
1719;SDS011;857;52.872;9.692;2022-12-18T02:22:27;18.75;;;8.52;;
1719;SDS011;857;52.872;9.692;2022-12-18T02:25:00;15.88;;;9.82;;
1719;SDS011;857;52.872;9.692;2022-12-18T02:27:33;18.63;;;8.73;;
1719;SDS011;857;52.872;9.692;2022-12-18T02:30:03;19.70;;;9.32;;
1719;SDS011;857;52.872;9.692;2022-12-18T02:32:32;16.90;;;8.48;;
1719;SDS011;857;52.872;9.692;2022-12-18T02:35:02;19.08;;;8.52;;
1719;SDS011;857;52.872;9.692;2022-12-18T02:37:31;16.75;;;8.27;;
1719;SDS011;857;52.872;9.692;2022-12-18T02:40:02;17.70;;;9.45;;
1719;SDS011;857;52.872;9.692;2022-12-18T02:42:33;16.88;;;8.90;;
1719;SDS011;857;52.872;9.692;2022-12-18T02:45:04;14.52;;;8.07;;
1719;SDS011;857;52.872;9.692;2022-12-18T02:47:33;21.45;;;8.60;;
1719;SDS011;857;52.872;9.692;2022-12-18T02:50:06;18.58;;;9.52;;
1719;SDS011;857;52.872;9.692;2022-12-18T02:52:37;16.08;;;8.57;;
1719;SDS011;857;52.872;9.692;2022-12-18T02:55:13;19.60;;;8.82;;
1719;SDS011;857;52.872;9.692;2022-12-18T02:57:48;18.58;;;9.13;;
1719;SDS011;857;52.872;9.692;2022-12-18T03:00:20;15.02;;;8.57;;
1719;SDS011;857;52.872;9.692;2022-12-18T03:02:51;14.95;;;8.35;;
1719;SDS011;857;52.872;9.692;2022-12-18T03:05:22;15.40;;;7.70;;
1719;SDS011;857;52.872;9.692;2022-12-18T03:07:53;14.45;;;8.05;;
1719;SDS011;857;52.872;9.692;2022-12-18T03:10:25;16.98;;;8.65;;
1719;SDS011;857;52.872;9.692;2022-12-18T03:12:56;12.75;;;8.15;;
1719;SDS011;857;52.872;9.692;2022-12-18T03:15:27;16.10;;;7.63;;
1719;SDS011;857;52.872;9.692;2022-12-18T03:18:06;14.63;;;7.53;;
1719;SDS011;857;52.872;9.692;2022-12-18T03:20:35;13.20;;;7.55;;
1719;SDS011;857;52.872;9.692;2022-12-18T03:23:07;11.05;;;6.60;;
1719;SDS011;857;52.872;9.692;2022-12-18T03:25:37;15.13;;;8.25;;
1719;SDS011;857;52.872;9.692;2022-12-18T03:28:07;19.85;;;8.82;;
1719;SDS011;857;52.872;9.692;2022-12-18T03:30:36;13.57;;;8.23;;
1719;SDS011;857;52.872;9.692;2022-12-18T03:33:06;16.00;;;7.95;;
1719;SDS011;857;52.872;9.692;2022-12-18T03:35:38;14.77;;;8.15;;
1719;SDS011;857;52.872;9.692;2022-12-18T03:38:06;14.55;;;7.95;;
1719;SDS011;857;52.872;9.692;2022-12-18T03:40:41;16.40;;;9.00;;
1719;SDS011;857;52.872;9.692;2022-12-18T03:43:14;14.88;;;7.32;;
1719;SDS011;857;52.872;9.692;2022-12-18T03:45:47;13.85;;;8.43;;
1719;SDS011;857;52.872;9.692;2022-12-18T03:48:18;15.60;;;8.57;;
1719;SDS011;857;52.872;9.692;2022-12-18T03:50:49;13.50;;;7.40;;
1719;SDS011;857;52.872;9.692;2022-12-18T03:53:24;17.05;;;8.05;;
1719;SDS011;857;52.872;9.692;2022-12-18T03:55:53;16.60;;;7.78;;
1719;SDS011;857;52.872;9.692;2022-12-18T03:58:26;13.32;;;7.72;;
1719;SDS011;857;52.872;9.692;2022-12-18T04:01:11;14.23;;;7.03;;
1719;SDS011;857;52.872;9.692;2022-12-18T04:03:39;10.77;;;7.25;;
1719;SDS011;857;52.872;9.692;2022-12-18T04:06:09;16.73;;;7.43;;
1719;SDS011;857;52.872;9.692;2022-12-18T04:08:39;16.65;;;8.00;;
1719;SDS011;857;52.872;9.692;2022-12-18T04:11:10;14.48;;;8.93;;
1719;SDS011;857;52.872;9.692;2022-12-18T04:13:39;16.20;;;7.25;;
1719;SDS011;857;52.872;9.692;2022-12-18T04:16:17;17.13;;;7.15;;
1719;SDS011;857;52.872;9.692;2022-12-18T04:18:48;13.45;;;7.43;;
1719;SDS011;857;52.872;9.692;2022-12-18T04:21:18;13.85;;;7.15;;
1719;SDS011;857;52.872;9.692;2022-12-18T04:23:47;12.18;;;6.70;;
1719;SDS011;857;52.872;9.692;2022-12-18T04:26:15;13.27;;;7.07;;
1719;SDS011;857;52.872;9.692;2022-12-18T04:29:04;14.02;;;7.63;;
1719;SDS011;857;52.872;9.692;2022-12-18T04:31:32;15.35;;;7.15;;
1719;SDS011;857;52.872;9.692;2022-12-18T04:34:01;14.15;;;7.57;;
1719;SDS011;857;52.872;9.692;2022-12-18T04:36:36;15.52;;;7.93;;
1719;SDS011;857;52.872;9.692;2022-12-18T04:39:04;12.00;;;6.93;;
1719;SDS011;857;52.872;9.692;2022-12-18T04:41:32;11.70;;;6.43;;
1719;SDS011;857;52.872;9.692;2022-12-18T04:44:00;12.52;;;8.00;;
1719;SDS011;857;52.872;9.692;2022-12-18T04:46:29;15.13;;;7.63;;
1719;SDS011;857;52.872;9.692;2022-12-18T04:48:57;17.52;;;7.53;;
1719;SDS011;857;52.872;9.692;2022-12-18T04:51:25;12.07;;;7.40;;
1719;SDS011;857;52.872;9.692;2022-12-18T04:53:53;12.68;;;6.90;;
1719;SDS011;857;52.872;9.692;2022-12-18T04:56:21;14.30;;;7.05;;
1719;SDS011;857;52.872;9.692;2022-12-18T04:58:48;18.27;;;7.88;;
1719;SDS011;857;52.872;9.692;2022-12-18T05:01:17;13.35;;;7.80;;
1719;SDS011;857;52.872;9.692;2022-12-18T05:03:48;13.32;;;6.97;;
1719;SDS011;857;52.872;9.692;2022-12-18T05:06:16;15.93;;;8.02;;
1719;SDS011;857;52.872;9.692;2022-12-18T05:08:44;14.00;;;6.72;;
1719;SDS011;857;52.872;9.692;2022-12-18T05:11:12;11.50;;;6.43;;
1719;SDS011;857;52.872;9.692;2022-12-18T05:13:41;14.13;;;6.95;;
1719;SDS011;857;52.872;9.692;2022-12-18T05:16:09;13.52;;;6.57;;
1719;SDS011;857;52.872;9.692;2022-12-18T05:18:37;12.32;;;7.25;;
1719;SDS011;857;52.872;9.692;2022-12-18T05:21:06;16.38;;;7.30;;
1719;SDS011;857;52.872;9.692;2022-12-18T05:23:35;18.15;;;8.10;;
1719;SDS011;857;52.872;9.692;2022-12-18T05:26:03;13.65;;;7.55;;
1719;SDS011;857;52.872;9.692;2022-12-18T05:28:32;12.63;;;7.00;;
1719;SDS011;857;52.872;9.692;2022-12-18T05:31:00;19.20;;;7.20;;
1719;SDS011;857;52.872;9.692;2022-12-18T05:33:29;13.43;;;7.45;;
1719;SDS011;857;52.872;9.692;2022-12-18T05:35:58;14.20;;;7.97;;
1719;SDS011;857;52.872;9.692;2022-12-18T05:38:31;13.02;;;7.32;;
1719;SDS011;857;52.872;9.692;2022-12-18T05:40:59;14.93;;;7.15;;
1719;SDS011;857;52.872;9.692;2022-12-18T05:43:26;14.43;;;8.00;;
1719;SDS011;857;52.872;9.692;2022-12-18T05:45:54;14.18;;;8.05;;
1719;SDS011;857;52.872;9.692;2022-12-18T05:48:23;13.50;;;6.68;;
1719;SDS011;857;52.872;9.692;2022-12-18T05:50:50;22.85;;;10.68;;
1719;SDS011;857;52.872;9.692;2022-12-18T05:53:19;18.85;;;10.57;;
1719;SDS011;857;52.872;9.692;2022-12-18T05:55:48;18.05;;;9.32;;
1719;SDS011;857;52.872;9.692;2022-12-18T05:58:16;18.80;;;8.82;;
1719;SDS011;857;52.872;9.692;2022-12-18T06:00:44;12.43;;;8.05;;
1719;SDS011;857;52.872;9.692;2022-12-18T06:03:12;13.35;;;7.85;;
1719;SDS011;857;52.872;9.692;2022-12-18T06:05:41;15.50;;;7.93;;
1719;SDS011;857;52.872;9.692;2022-12-18T06:08:09;16.45;;;6.80;;
1719;SDS011;857;52.872;9.692;2022-12-18T06:10:37;16.40;;;8.23;;
1719;SDS011;857;52.872;9.692;2022-12-18T06:13:06;13.05;;;7.53;;
1719;SDS011;857;52.872;9.692;2022-12-18T06:15:35;12.88;;;7.60;;
1719;SDS011;857;52.872;9.692;2022-12-18T06:18:03;13.43;;;7.93;;
1719;SDS011;857;52.872;9.692;2022-12-18T06:20:31;12.23;;;7.63;;
1719;SDS011;857;52.872;9.692;2022-12-18T06:22:59;13.88;;;7.70;;
1719;SDS011;857;52.872;9.692;2022-12-18T06:25:27;12.63;;;7.10;;
1719;SDS011;857;52.872;9.692;2022-12-18T06:27:54;14.38;;;7.65;;
1719;SDS011;857;52.872;9.692;2022-12-18T06:30:26;13.68;;;8.20;;
1719;SDS011;857;52.872;9.692;2022-12-18T06:32:54;15.25;;;7.57;;
1719;SDS011;857;52.872;9.692;2022-12-18T06:35:22;12.85;;;7.07;;
1719;SDS011;857;52.872;9.692;2022-12-18T06:37:50;16.05;;;8.50;;
1719;SDS011;857;52.872;9.692;2022-12-18T06:40:17;16.50;;;8.10;;
1719;SDS011;857;52.872;9.692;2022-12-18T06:42:45;18.83;;;8.98;;
1719;SDS011;857;52.872;9.692;2022-12-18T06:45:13;14.70;;;9.13;;
1719;SDS011;857;52.872;9.692;2022-12-18T06:50:41;18.60;;;10.68;;
1719;SDS011;857;52.872;9.692;2022-12-18T06:53:09;15.50;;;10.23;;
1719;SDS011;857;52.872;9.692;2022-12-18T06:55:37;16.00;;;8.90;;
1719;SDS011;857;52.872;9.692;2022-12-18T06:58:05;12.90;;;8.43;;
1719;SDS011;857;52.872;9.692;2022-12-18T07:00:32;16.48;;;9.30;;
1719;SDS011;857;52.872;9.692;2022-12-18T07:03:00;13.05;;;9.05;;
1719;SDS011;857;52.872;9.692;2022-12-18T07:05:28;18.38;;;9.30;;
1719;SDS011;857;52.872;9.692;2022-12-18T07:07:57;19.20;;;9.20;;
1719;SDS011;857;52.872;9.692;2022-12-18T07:10:25;15.30;;;8.60;;
1719;SDS011;857;52.872;9.692;2022-12-18T07:12:52;15.93;;;8.90;;
1719;SDS011;857;52.872;9.692;2022-12-18T07:15:20;13.25;;;8.18;;
1719;SDS011;857;52.872;9.692;2022-12-18T07:17:48;18.02;;;9.40;;
1719;SDS011;857;52.872;9.692;2022-12-18T07:20:16;16.92;;;9.15;;
1719;SDS011;857;52.872;9.692;2022-12-18T07:22:43;34.13;;;13.20;;
1719;SDS011;857;52.872;9.692;2022-12-18T07:25:12;26.17;;;11.55;;
1719;SDS011;857;52.872;9.692;2022-12-18T07:27:40;20.33;;;12.18;;
1719;SDS011;857;52.872;9.692;2022-12-18T07:30:12;21.83;;;11.32;;
1719;SDS011;857;52.872;9.692;2022-12-18T07:32:54;12.13;;;9.02;;
1719;SDS011;857;52.872;9.692;2022-12-18T07:35:22;22.13;;;11.50;;
1719;SDS011;857;52.872;9.692;2022-12-18T07:37:50;21.13;;;10.63;;
1719;SDS011;857;52.872;9.692;2022-12-18T07:40:19;15.13;;;9.25;;
1719;SDS011;857;52.872;9.692;2022-12-18T07:42:46;16.60;;;9.88;;
1719;SDS011;857;52.872;9.692;2022-12-18T07:45:14;18.00;;;9.48;;
1719;SDS011;857;52.872;9.692;2022-12-18T07:47:42;15.02;;;9.57;;
1719;SDS011;857;52.872;9.692;2022-12-18T07:50:10;15.57;;;9.00;;
1719;SDS011;857;52.872;9.692;2022-12-18T07:52:38;15.18;;;8.52;;
1719;SDS011;857;52.872;9.692;2022-12-18T07:55:06;18.67;;;9.68;;
1719;SDS011;857;52.872;9.692;2022-12-18T07:57:35;15.15;;;8.38;;
1719;SDS011;857;52.872;9.692;2022-12-18T08:00:04;18.88;;;9.00;;
1719;SDS011;857;52.872;9.692;2022-12-18T08:02:37;16.55;;;9.55;;
1719;SDS011;857;52.872;9.692;2022-12-18T08:05:05;15.75;;;9.43;;
1719;SDS011;857;52.872;9.692;2022-12-18T08:07:33;19.42;;;8.60;;
1719;SDS011;857;52.872;9.692;2022-12-18T08:10:01;16.10;;;8.32;;
1719;SDS011;857;52.872;9.692;2022-12-18T08:12:28;16.58;;;8.52;;
1719;SDS011;857;52.872;9.692;2022-12-18T08:14:57;18.30;;;11.00;;
1719;SDS011;857;52.872;9.692;2022-12-18T08:20:08;29.58;;;15.25;;
1719;SDS011;857;52.872;9.692;2022-12-18T08:22:36;23.27;;;13.50;;
1719;SDS011;857;52.872;9.692;2022-12-18T08:25:04;23.27;;;11.90;;
1719;SDS011;857;52.872;9.692;2022-12-18T08:27:32;23.77;;;11.63;;
1719;SDS011;857;52.872;9.692;2022-12-18T08:30:02;16.85;;;11.07;;
1719;SDS011;857;52.872;9.692;2022-12-18T08:32:30;16.55;;;12.43;;
1719;SDS011;857;52.872;9.692;2022-12-18T08:34:58;20.23;;;9.65;;
1719;SDS011;857;52.872;9.692;2022-12-18T08:37:26;18.77;;;10.18;;
1719;SDS011;857;52.872;9.692;2022-12-18T08:39:53;13.20;;;8.40;;
1719;SDS011;857;52.872;9.692;2022-12-18T08:42:21;12.00;;;7.68;;
1719;SDS011;857;52.872;9.692;2022-12-18T08:45:22;15.18;;;8.77;;
1719;SDS011;857;52.872;9.692;2022-12-18T08:47:50;14.43;;;9.10;;
1719;SDS011;857;52.872;9.692;2022-12-18T08:50:17;17.02;;;8.55;;
1719;SDS011;857;52.872;9.692;2022-12-18T08:52:45;15.10;;;8.60;;
1719;SDS011;857;52.872;9.692;2022-12-18T08:55:13;18.20;;;7.82;;
1719;SDS011;857;52.872;9.692;2022-12-18T08:57:41;21.17;;;9.73;;
1719;SDS011;857;52.872;9.692;2022-12-18T09:00:09;13.75;;;9.13;;
1719;SDS011;857;52.872;9.692;2022-12-18T09:02:40;16.33;;;8.60;;
1719;SDS011;857;52.872;9.692;2022-12-18T09:05:08;13.63;;;8.63;;
1719;SDS011;857;52.872;9.692;2022-12-18T09:07:36;16.35;;;9.23;;
1719;SDS011;857;52.872;9.692;2022-12-18T09:10:04;13.18;;;8.75;;
1719;SDS011;857;52.872;9.692;2022-12-18T09:12:32;16.70;;;8.90;;
1719;SDS011;857;52.872;9.692;2022-12-18T09:14:59;17.23;;;8.20;;
1719;SDS011;857;52.872;9.692;2022-12-18T09:17:27;14.73;;;8.10;;
1719;SDS011;857;52.872;9.692;2022-12-18T09:19:56;16.02;;;9.10;;
1719;SDS011;857;52.872;9.692;2022-12-18T09:22:24;12.45;;;8.23;;
1719;SDS011;857;52.872;9.692;2022-12-18T09:24:51;14.15;;;7.65;;
1719;SDS011;857;52.872;9.692;2022-12-18T09:27:19;14.02;;;8.18;;
1719;SDS011;857;52.872;9.692;2022-12-18T09:29:47;15.95;;;8.77;;
1719;SDS011;857;52.872;9.692;2022-12-18T09:32:14;15.02;;;10.02;;
1719;SDS011;857;52.872;9.692;2022-12-18T09:34:42;19.17;;;9.80;;
1719;SDS011;857;52.872;9.692;2022-12-18T09:37:11;18.23;;;9.15;;
1719;SDS011;857;52.872;9.692;2022-12-18T09:39:39;14.05;;;8.30;;
1719;SDS011;857;52.872;9.692;2022-12-18T09:42:09;16.83;;;9.77;;
1719;SDS011;857;52.872;9.692;2022-12-18T09:44:43;14.32;;;7.45;;
1719;SDS011;857;52.872;9.692;2022-12-18T09:47:13;18.60;;;9.77;;
1719;SDS011;857;52.872;9.692;2022-12-18T09:49:43;17.42;;;8.45;;
1719;SDS011;857;52.872;9.692;2022-12-18T09:52:17;13.60;;;8.88;;
1719;SDS011;857;52.872;9.692;2022-12-18T09:54:48;11.75;;;6.72;;
1719;SDS011;857;52.872;9.692;2022-12-18T09:57:18;12.40;;;8.00;;
1719;SDS011;857;52.872;9.692;2022-12-18T09:59:48;13.35;;;8.35;;
1719;SDS011;857;52.872;9.692;2022-12-18T10:02:18;14.02;;;8.13;;
1719;SDS011;857;52.872;9.692;2022-12-18T10:04:48;14.23;;;8.90;;
1719;SDS011;857;52.872;9.692;2022-12-18T10:07:19;14.63;;;8.85;;
1719;SDS011;857;52.872;9.692;2022-12-18T10:09:51;14.35;;;8.23;;
1719;SDS011;857;52.872;9.692;2022-12-18T10:12:22;18.00;;;9.45;;
1719;SDS011;857;52.872;9.692;2022-12-18T10:14:51;23.33;;;9.43;;
1719;SDS011;857;52.872;9.692;2022-12-18T10:17:26;13.63;;;7.65;;
1719;SDS011;857;52.872;9.692;2022-12-18T10:19:56;15.50;;;8.57;;
1719;SDS011;857;52.872;9.692;2022-12-18T10:22:36;13.93;;;8.30;;
1719;SDS011;857;52.872;9.692;2022-12-18T10:25:10;15.52;;;8.23;;
1719;SDS011;857;52.872;9.692;2022-12-18T10:27:41;8.88;;;5.10;;
1719;SDS011;857;52.872;9.692;2022-12-18T10:30:12;12.38;;;9.20;;
1719;SDS011;857;52.872;9.692;2022-12-18T10:32:40;19.50;;;11.07;;
1719;SDS011;857;52.872;9.692;2022-12-18T10:35:13;16.00;;;10.05;;
1719;SDS011;857;52.872;9.692;2022-12-18T10:40:47;17.00;;;10.52;;
1719;SDS011;857;52.872;9.692;2022-12-18T10:43:15;18.17;;;9.63;;
1719;SDS011;857;52.872;9.692;2022-12-18T10:45:57;16.13;;;8.45;;
1719;SDS011;857;52.872;9.692;2022-12-18T10:48:25;15.10;;;9.20;;
1719;SDS011;857;52.872;9.692;2022-12-18T10:50:53;13.43;;;7.78;;
1719;SDS011;857;52.872;9.692;2022-12-18T10:53:23;13.07;;;7.78;;
1719;SDS011;857;52.872;9.692;2022-12-18T10:55:53;12.98;;;5.93;;
1719;SDS011;857;52.872;9.692;2022-12-18T10:58:23;10.20;;;6.22;;
1719;SDS011;857;52.872;9.692;2022-12-18T11:01:05;12.05;;;6.80;;
1719;SDS011;857;52.872;9.692;2022-12-18T11:03:34;12.82;;;8.05;;
1719;SDS011;857;52.872;9.692;2022-12-18T11:06:03;11.57;;;7.18;;
1719;SDS011;857;52.872;9.692;2022-12-18T11:08:31;11.70;;;7.47;;
1719;SDS011;857;52.872;9.692;2022-12-18T11:11:00;12.90;;;7.87;;
1719;SDS011;857;52.872;9.692;2022-12-18T11:13:29;12.88;;;7.72;;
1719;SDS011;857;52.872;9.692;2022-12-18T11:15:57;13.50;;;7.27;;
1719;SDS011;857;52.872;9.692;2022-12-18T11:18:26;8.65;;;5.55;;
1719;SDS011;857;52.872;9.692;2022-12-18T11:20:55;11.98;;;7.07;;
1719;SDS011;857;52.872;9.692;2022-12-18T11:23:24;10.77;;;6.57;;
1719;SDS011;857;52.872;9.692;2022-12-18T11:25:55;10.63;;;5.88;;
1719;SDS011;857;52.872;9.692;2022-12-18T11:28:33;7.22;;;4.15;;
1719;SDS011;857;52.872;9.692;2022-12-18T11:31:09;8.85;;;5.63;;
1719;SDS011;857;52.872;9.692;2022-12-18T11:33:39;12.25;;;6.70;;
1719;SDS011;857;52.872;9.692;2022-12-18T11:36:09;9.17;;;5.13;;
1719;SDS011;857;52.872;9.692;2022-12-18T11:38:38;10.50;;;6.70;;
1719;SDS011;857;52.872;9.692;2022-12-18T11:41:10;11.50;;;7.15;;
1719;SDS011;857;52.872;9.692;2022-12-18T11:43:43;12.70;;;7.13;;
1719;SDS011;857;52.872;9.692;2022-12-18T11:46:13;11.27;;;7.10;;
1719;SDS011;857;52.872;9.692;2022-12-18T11:48:43;15.23;;;6.35;;
1719;SDS011;857;52.872;9.692;2022-12-18T11:51:13;11.85;;;6.50;;
1719;SDS011;857;52.872;9.692;2022-12-18T11:53:44;12.18;;;6.90;;
1719;SDS011;857;52.872;9.692;2022-12-18T11:56:17;7.07;;;4.73;;
1719;SDS011;857;52.872;9.692;2022-12-18T11:58:51;7.78;;;5.55;;
1719;SDS011;857;52.872;9.692;2022-12-18T12:01:26;11.75;;;6.85;;
1719;SDS011;857;52.872;9.692;2022-12-18T12:04:01;11.18;;;6.50;;
1719;SDS011;857;52.872;9.692;2022-12-18T12:06:33;6.18;;;4.20;;
1719;SDS011;857;52.872;9.692;2022-12-18T12:09:05;5.93;;;4.63;;
1719;SDS011;857;52.872;9.692;2022-12-18T12:11:40;10.18;;;6.53;;
1719;SDS011;857;52.872;9.692;2022-12-18T12:14:20;9.27;;;6.30;;
1719;SDS011;857;52.872;9.692;2022-12-18T12:16:50;6.53;;;4.30;;
1719;SDS011;857;52.872;9.692;2022-12-18T12:19:23;6.67;;;4.47;;
1719;SDS011;857;52.872;9.692;2022-12-18T12:21:55;4.97;;;3.33;;
1719;SDS011;857;52.872;9.692;2022-12-18T12:24:28;10.00;;;6.03;;
1719;SDS011;857;52.872;9.692;2022-12-18T12:27:03;8.20;;;5.03;;
1719;SDS011;857;52.872;9.692;2022-12-18T12:29:39;5.87;;;3.77;;
1719;SDS011;857;52.872;9.692;2022-12-18T12:32:13;7.83;;;5.40;;
1719;SDS011;857;52.872;9.692;2022-12-18T12:34:46;9.30;;;5.60;;
1719;SDS011;857;52.872;9.692;2022-12-18T12:37:20;7.20;;;4.70;;
1719;SDS011;857;52.872;9.692;2022-12-18T12:39:51;5.63;;;4.30;;
1719;SDS011;857;52.872;9.692;2022-12-18T12:42:23;11.37;;;6.10;;
1719;SDS011;857;52.872;9.692;2022-12-18T12:45:14;7.82;;;5.40;;
1719;SDS011;857;52.872;9.692;2022-12-18T12:47:43;5.63;;;3.97;;
1719;SDS011;857;52.872;9.692;2022-12-18T12:50:14;8.87;;;6.30;;
1719;SDS011;857;52.872;9.692;2022-12-18T12:52:43;10.90;;;6.67;;
1719;SDS011;857;52.872;9.692;2022-12-18T12:55:14;8.52;;;5.13;;
1719;SDS011;857;52.872;9.692;2022-12-18T12:57:45;6.50;;;4.30;;
1719;SDS011;857;52.872;9.692;2022-12-18T13:00:15;8.67;;;6.00;;
1719;SDS011;857;52.872;9.692;2022-12-18T13:02:44;10.13;;;5.47;;
1719;SDS011;857;52.872;9.692;2022-12-18T13:05:16;5.10;;;3.27;;
1719;SDS011;857;52.872;9.692;2022-12-18T13:07:47;7.70;;;4.20;;
1719;SDS011;857;52.872;9.692;2022-12-18T13:10:31;11.93;;;7.97;;
1719;SDS011;857;52.872;9.692;2022-12-18T13:13:00;11.10;;;7.47;;
1719;SDS011;857;52.872;9.692;2022-12-18T13:15:33;14.05;;;8.27;;
1719;SDS011;857;52.872;9.692;2022-12-18T13:18:13;13.90;;;8.40;;
1719;SDS011;857;52.872;9.692;2022-12-18T13:20:42;12.63;;;7.67;;
1719;SDS011;857;52.872;9.692;2022-12-18T13:23:23;10.75;;;6.75;;
1719;SDS011;857;52.872;9.692;2022-12-18T13:25:53;14.48;;;7.65;;
1719;SDS011;857;52.872;9.692;2022-12-18T13:28:21;12.67;;;7.67;;
1719;SDS011;857;52.872;9.692;2022-12-18T13:30:53;11.70;;;6.83;;
1719;SDS011;857;52.872;9.692;2022-12-18T13:36:09;15.85;;;8.43;;
1719;SDS011;857;52.872;9.692;2022-12-18T13:38:39;12.53;;;7.20;;
1719;SDS011;857;52.872;9.692;2022-12-18T13:41:21;13.90;;;7.87;;
1719;SDS011;857;52.872;9.692;2022-12-18T13:43:49;15.57;;;9.80;;
1719;SDS011;857;52.872;9.692;2022-12-18T13:46:23;15.80;;;9.73;;
1719;SDS011;857;52.872;9.692;2022-12-18T13:48:52;9.23;;;6.03;;
1719;SDS011;857;52.872;9.692;2022-12-18T13:51:21;13.50;;;8.20;;
1719;SDS011;857;52.872;9.692;2022-12-18T13:53:50;7.10;;;4.33;;
1719;SDS011;857;52.872;9.692;2022-12-18T13:56:21;9.23;;;5.30;;
1719;SDS011;857;52.872;9.692;2022-12-18T13:59:06;11.30;;;6.70;;
1719;SDS011;857;52.872;9.692;2022-12-18T14:01:35;5.03;;;3.20;;
1719;SDS011;857;52.872;9.692;2022-12-18T14:04:10;9.13;;;6.83;;
1719;SDS011;857;52.872;9.692;2022-12-18T14:06:37;4.97;;;3.43;;
1719;SDS011;857;52.872;9.692;2022-12-18T14:09:05;9.10;;;5.20;;
1719;SDS011;857;52.872;9.692;2022-12-18T14:11:33;5.60;;;3.60;;
1719;SDS011;857;52.872;9.692;2022-12-18T14:15:48;6.43;;;4.20;;
1719;SDS011;857;52.872;9.692;2022-12-18T14:18:19;9.13;;;4.80;;
1719;SDS011;857;52.872;9.692;2022-12-18T14:20:48;8.53;;;6.03;;
1719;SDS011;857;52.872;9.692;2022-12-18T14:23:29;13.93;;;8.90;;
1719;SDS011;857;52.872;9.692;2022-12-18T14:25:57;15.00;;;8.63;;
1719;SDS011;857;52.872;9.692;2022-12-18T14:28:25;16.92;;;8.90;;
1719;SDS011;857;52.872;9.692;2022-12-18T14:30:54;20.20;;;10.40;;
1719;SDS011;857;52.872;9.692;2022-12-18T14:33:23;15.03;;;9.07;;
1719;SDS011;857;52.872;9.692;2022-12-18T14:35:56;20.40;;;11.00;;
1719;SDS011;857;52.872;9.692;2022-12-18T14:38:28;15.70;;;9.85;;
1719;SDS011;857;52.872;9.692;2022-12-18T14:40:59;11.17;;;5.50;;
1719;SDS011;857;52.872;9.692;2022-12-18T14:43:33;7.80;;;4.37;;
1719;SDS011;857;52.872;9.692;2022-12-18T14:46:02;8.20;;;5.73;;
1719;SDS011;857;52.872;9.692;2022-12-18T14:48:35;7.33;;;4.27;;
1719;SDS011;857;52.872;9.692;2022-12-18T14:51:04;7.03;;;4.70;;
1719;SDS011;857;52.872;9.692;2022-12-18T14:53:33;6.40;;;4.80;;
1719;SDS011;857;52.872;9.692;2022-12-18T14:56:02;7.57;;;5.00;;
1719;SDS011;857;52.872;9.692;2022-12-18T14:58:30;7.33;;;4.40;;
1719;SDS011;857;52.872;9.692;2022-12-18T15:00:58;7.90;;;4.77;;
1719;SDS011;857;52.872;9.692;2022-12-18T15:03:27;7.43;;;5.17;;
1719;SDS011;857;52.872;9.692;2022-12-18T15:05:55;7.70;;;4.47;;
1719;SDS011;857;52.872;9.692;2022-12-18T15:08:30;18.40;;;11.40;;
1719;SDS011;857;52.872;9.692;2022-12-18T15:10:58;13.93;;;8.93;;
1719;SDS011;857;52.872;9.692;2022-12-18T15:13:26;5.23;;;3.80;;
1719;SDS011;857;52.872;9.692;2022-12-18T15:15:53;5.40;;;3.43;;
1719;SDS011;857;52.872;9.692;2022-12-18T15:18:23;6.07;;;3.80;;
1719;SDS011;857;52.872;9.692;2022-12-18T15:20:55;13.53;;;7.80;;
1719;SDS011;857;52.872;9.692;2022-12-18T15:23:25;8.60;;;4.63;;
1719;SDS011;857;52.872;9.692;2022-12-18T15:25:57;9.90;;;4.00;;
1719;SDS011;857;52.872;9.692;2022-12-18T15:28:26;15.67;;;8.73;;
1719;SDS011;857;52.872;9.692;2022-12-18T15:31:01;7.63;;;4.50;;
1719;SDS011;857;52.872;9.692;2022-12-18T15:33:30;13.17;;;7.73;;
1719;SDS011;857;52.872;9.692;2022-12-18T15:36:00;17.07;;;11.20;;
1719;SDS011;857;52.872;9.692;2022-12-18T15:38:28;6.60;;;4.10;;
1719;SDS011;857;52.872;9.692;2022-12-18T15:40:56;19.50;;;12.07;;
1719;SDS011;857;52.872;9.692;2022-12-18T15:43:24;14.43;;;8.83;;
1719;SDS011;857;52.872;9.692;2022-12-18T15:46:00;14.37;;;9.43;;